sensor_id;sensor_type;location;lat;lon;timestamp;temperature;humidity
25914;DHT22;13718;50.922;5.346;2023-05-10T00:01:46;14.30;99.90
25914;DHT22;13718;50.922;5.346;2023-05-10T00:04:12;14.30;99.90
25914;DHT22;13718;50.922;5.346;2023-05-10T00:06:37;14.30;99.90
25914;DHT22;13718;50.922;5.346;2023-05-10T00:09:03;14.30;99.90
25914;DHT22;13718;50.922;5.346;2023-05-10T00:11:29;14.30;99.90
25914;DHT22;13718;50.922;5.346;2023-05-10T00:13:55;14.30;99.90
25914;DHT22;13718;50.922;5.346;2023-05-10T00:16:20;14.40;99.90
25914;DHT22;13718;50.922;5.346;2023-05-10T00:18:46;14.30;99.90
25914;DHT22;13718;50.922;5.346;2023-05-10T00:21:11;14.20;99.90
25914;DHT22;13718;50.922;5.346;2023-05-10T00:23:37;14.20;99.90
25914;DHT22;13718;50.922;5.346;2023-05-10T00:26:03;14.10;99.90
25914;DHT22;13718;50.922;5.346;2023-05-10T00:28:29;14.20;99.90
25914;DHT22;13718;50.922;5.346;2023-05-10T00:30:54;14.20;99.90
25914;DHT22;13718;50.922;5.346;2023-05-10T00:33:20;14.10;99.90
25914;DHT22;13718;50.922;5.346;2023-05-10T00:35:46;14.10;99.90
25914;DHT22;13718;50.922;5.346;2023-05-10T00:38:12;14.10;99.90
25914;DHT22;13718;50.922;5.346;2023-05-10T00:40:37;14.20;99.90
25914;DHT22;13718;50.922;5.346;2023-05-10T00:43:04;14.20;99.90
25914;DHT22;13718;50.922;5.346;2023-05-10T00:45:31;14.30;99.90
25914;DHT22;13718;50.922;5.346;2023-05-10T00:47:59;14.20;99.90
25914;DHT22;13718;50.922;5.346;2023-05-10T00:50:25;14.30;99.90
25914;DHT22;13718;50.922;5.346;2023-05-10T00:52:51;14.50;99.90
25914;DHT22;13718;50.922;5.346;2023-05-10T00:55:18;14.40;99.90
25914;DHT22;13718;50.922;5.346;2023-05-10T00:57:44;14.40;99.90
25914;DHT22;13718;50.922;5.346;2023-05-10T01:00:10;14.30;99.90
25914;DHT22;13718;50.922;5.346;2023-05-10T01:02:36;14.30;99.90
25914;DHT22;13718;50.922;5.346;2023-05-10T01:05:03;14.20;99.90
25914;DHT22;13718;50.922;5.346;2023-05-10T01:07:29;14.20;99.90
25914;DHT22;13718;50.922;5.346;2023-05-10T01:09:55;14.20;99.90
25914;DHT22;13718;50.922;5.346;2023-05-10T01:12:21;14.20;99.90
25914;DHT22;13718;50.922;5.346;2023-05-10T01:14:47;14.20;99.90
25914;DHT22;13718;50.922;5.346;2023-05-10T01:17:13;14.20;99.90
25914;DHT22;13718;50.922;5.346;2023-05-10T01:19:39;14.20;99.90
25914;DHT22;13718;50.922;5.346;2023-05-10T01:38:27;14.20;99.90
25914;DHT22;13718;50.922;5.346;2023-05-10T01:41:14;14.20;99.90
25914;DHT22;13718;50.922;5.346;2023-05-10T01:46:35;14.20;99.90
25914;DHT22;13718;50.922;5.346;2023-05-10T01:49:07;14.20;99.90
25914;DHT22;13718;50.922;5.346;2023-05-10T01:51:41;14.20;99.90
25914;DHT22;13718;50.922;5.346;2023-05-10T01:54:12;14.20;99.90
25914;DHT22;13718;50.922;5.346;2023-05-10T01:56:39;14.20;99.90
25914;DHT22;13718;50.922;5.346;2023-05-10T01:59:11;14.10;99.90
25914;DHT22;13718;50.922;5.346;2023-05-10T02:01:38;14.10;99.90
25914;DHT22;13718;50.922;5.346;2023-05-10T02:04:08;14.10;99.90
25914;DHT22;13718;50.922;5.346;2023-05-10T02:06:35;14.20;99.90
25914;DHT22;13718;50.922;5.346;2023-05-10T02:09:03;14.30;99.90
25914;DHT22;13718;50.922;5.346;2023-05-10T02:11:29;14.30;99.90
25914;DHT22;13718;50.922;5.346;2023-05-10T02:13:58;14.10;99.90
25914;DHT22;13718;50.922;5.346;2023-05-10T02:16:24;14.20;99.90
25914;DHT22;13718;50.922;5.346;2023-05-10T02:18:52;14.10;99.90
25914;DHT22;13718;50.922;5.346;2023-05-10T02:21:20;14.10;99.90
25914;DHT22;13718;50.922;5.346;2023-05-10T02:23:46;14.20;99.90
25914;DHT22;13718;50.922;5.346;2023-05-10T02:26:14;14.00;99.90
25914;DHT22;13718;50.922;5.346;2023-05-10T02:28:40;14.10;99.90
25914;DHT22;13718;50.922;5.346;2023-05-10T02:31:08;14.00;99.90
25914;DHT22;13718;50.922;5.346;2023-05-10T02:33:38;14.10;99.90
25914;DHT22;13718;50.922;5.346;2023-05-10T02:36:07;14.10;99.90
25914;DHT22;13718;50.922;5.346;2023-05-10T02:38:34;14.10;99.90
25914;DHT22;13718;50.922;5.346;2023-05-10T02:41:01;14.10;99.90
25914;DHT22;13718;50.922;5.346;2023-05-10T02:43:30;14.20;99.90
25914;DHT22;13718;50.922;5.346;2023-05-10T02:45:57;14.10;99.90
25914;DHT22;13718;50.922;5.346;2023-05-10T02:48:23;14.00;99.90
25914;DHT22;13718;50.922;5.346;2023-05-10T02:50:50;14.00;99.90
25914;DHT22;13718;50.922;5.346;2023-05-10T02:53:23;14.00;99.90
25914;DHT22;13718;50.922;5.346;2023-05-10T02:55:58;14.00;99.90
25914;DHT22;13718;50.922;5.346;2023-05-10T02:58:24;14.00;99.90
25914;DHT22;13718;50.922;5.346;2023-05-10T03:00:50;14.10;99.90
25914;DHT22;13718;50.922;5.346;2023-05-10T03:03:16;14.10;99.90
25914;DHT22;13718;50.922;5.346;2023-05-10T03:05:42;14.00;99.90
25914;DHT22;13718;50.922;5.346;2023-05-10T03:08:07;14.00;99.90
25914;DHT22;13718;50.922;5.346;2023-05-10T03:10:41;14.00;99.90
25914;DHT22;13718;50.922;5.346;2023-05-10T03:13:17;14.00;99.90
25914;DHT22;13718;50.922;5.346;2023-05-10T03:16:05;14.00;99.90
25914;DHT22;13718;50.922;5.346;2023-05-10T03:18:47;14.00;99.90
25914;DHT22;13718;50.922;5.346;2023-05-10T03:21:17;14.00;99.90
25914;DHT22;13718;50.922;5.346;2023-05-10T03:23:47;14.00;99.90
25914;DHT22;13718;50.922;5.346;2023-05-10T03:26:20;14.00;99.90
25914;DHT22;13718;50.922;5.346;2023-05-10T03:28:48;14.00;99.90
25914;DHT22;13718;50.922;5.346;2023-05-10T03:31:14;14.00;99.90
25914;DHT22;13718;50.922;5.346;2023-05-10T03:33:49;14.10;99.90
25914;DHT22;13718;50.922;5.346;2023-05-10T03:36:15;14.10;99.90
25914;DHT22;13718;50.922;5.346;2023-05-10T03:38:41;14.00;99.90
25914;DHT22;13718;50.922;5.346;2023-05-10T03:41:07;13.90;99.90
25914;DHT22;13718;50.922;5.346;2023-05-10T03:43:33;14.00;99.90
25914;DHT22;13718;50.922;5.346;2023-05-10T03:46:01;14.00;99.90
25914;DHT22;13718;50.922;5.346;2023-05-10T03:48:26;14.10;99.90
25914;DHT22;13718;50.922;5.346;2023-05-10T03:50:52;14.20;99.90
25914;DHT22;13718;50.922;5.346;2023-05-10T03:53:20;14.10;99.90
25914;DHT22;13718;50.922;5.346;2023-05-10T03:55:46;14.00;99.90
25914;DHT22;13718;50.922;5.346;2023-05-10T03:58:12;14.00;99.90
25914;DHT22;13718;50.922;5.346;2023-05-10T04:00:37;14.10;99.90
25914;DHT22;13718;50.922;5.346;2023-05-10T04:03:09;14.00;99.90
25914;DHT22;13718;50.922;5.346;2023-05-10T04:05:35;14.00;99.90
25914;DHT22;13718;50.922;5.346;2023-05-10T04:08:01;13.90;99.90
25914;DHT22;13718;50.922;5.346;2023-05-10T04:10:27;14.00;99.90
25914;DHT22;13718;50.922;5.346;2023-05-10T04:12:52;14.00;99.90
25914;DHT22;13718;50.922;5.346;2023-05-10T04:15:18;13.90;99.90
25914;DHT22;13718;50.922;5.346;2023-05-10T04:17:44;13.90;99.90
25914;DHT22;13718;50.922;5.346;2023-05-10T04:20:10;13.90;99.90
25914;DHT22;13718;50.922;5.346;2023-05-10T04:22:36;13.80;99.90
25914;DHT22;13718;50.922;5.346;2023-05-10T04:25:01;13.80;99.90
25914;DHT22;13718;50.922;5.346;2023-05-10T04:27:27;13.90;99.90
25914;DHT22;13718;50.922;5.346;2023-05-10T04:29:52;13.80;99.90
25914;DHT22;13718;50.922;5.346;2023-05-10T04:32:18;13.90;99.90
25914;DHT22;13718;50.922;5.346;2023-05-10T04:34:45;13.80;99.90
25914;DHT22;13718;50.922;5.346;2023-05-10T04:37:11;13.80;99.90
25914;DHT22;13718;50.922;5.346;2023-05-10T04:39:37;13.80;99.90
25914;DHT22;13718;50.922;5.346;2023-05-10T04:42:03;13.80;99.90
25914;DHT22;13718;50.922;5.346;2023-05-10T04:44:31;13.80;99.90
25914;DHT22;13718;50.922;5.346;2023-05-10T04:46:59;13.80;99.90
25914;DHT22;13718;50.922;5.346;2023-05-10T04:49:25;13.80;99.90
25914;DHT22;13718;50.922;5.346;2023-05-10T04:51:51;13.80;99.90
25914;DHT22;13718;50.922;5.346;2023-05-10T04:54:16;13.80;99.90
25914;DHT22;13718;50.922;5.346;2023-05-10T04:56:42;13.80;99.90
25914;DHT22;13718;50.922;5.346;2023-05-10T04:59:08;13.80;99.90
25914;DHT22;13718;50.922;5.346;2023-05-10T05:01:33;13.80;99.90
25914;DHT22;13718;50.922;5.346;2023-05-10T05:03:59;13.80;99.90
25914;DHT22;13718;50.922;5.346;2023-05-10T05:06:25;13.80;99.90
25914;DHT22;13718;50.922;5.346;2023-05-10T05:08:51;13.80;99.90
25914;DHT22;13718;50.922;5.346;2023-05-10T05:11:17;13.80;99.90
25914;DHT22;13718;50.922;5.346;2023-05-10T05:13:43;13.70;99.90
25914;DHT22;13718;50.922;5.346;2023-05-10T05:16:09;13.70;99.90
25914;DHT22;13718;50.922;5.346;2023-05-10T05:18:35;13.70;99.90
25914;DHT22;13718;50.922;5.346;2023-05-10T05:21:00;13.80;99.90
25914;DHT22;13718;50.922;5.346;2023-05-10T05:23:29;13.80;99.90
25914;DHT22;13718;50.922;5.346;2023-05-10T05:25:55;13.80;99.90
25914;DHT22;13718;50.922;5.346;2023-05-10T05:28:21;13.80;99.90
25914;DHT22;13718;50.922;5.346;2023-05-10T05:30:47;13.90;99.90
25914;DHT22;13718;50.922;5.346;2023-05-10T05:33:15;13.90;99.90
25914;DHT22;13718;50.922;5.346;2023-05-10T05:35:41;13.90;99.90
25914;DHT22;13718;50.922;5.346;2023-05-10T05:38:10;13.90;99.90
25914;DHT22;13718;50.922;5.346;2023-05-10T05:40:35;13.80;99.90
25914;DHT22;13718;50.922;5.346;2023-05-10T05:43:01;13.70;99.90
25914;DHT22;13718;50.922;5.346;2023-05-10T05:45:26;13.80;99.90
25914;DHT22;13718;50.922;5.346;2023-05-10T05:47:52;13.80;99.90
25914;DHT22;13718;50.922;5.346;2023-05-10T05:50:18;13.80;99.90
25914;DHT22;13718;50.922;5.346;2023-05-10T05:52:43;13.80;99.90
25914;DHT22;13718;50.922;5.346;2023-05-10T05:55:09;13.90;99.90
25914;DHT22;13718;50.922;5.346;2023-05-10T05:57:34;13.90;99.90
25914;DHT22;13718;50.922;5.346;2023-05-10T06:00:00;13.90;99.90
25914;DHT22;13718;50.922;5.346;2023-05-10T06:02:26;14.00;99.90
25914;DHT22;13718;50.922;5.346;2023-05-10T06:04:51;13.90;99.90
25914;DHT22;13718;50.922;5.346;2023-05-10T06:07:17;14.00;99.90
25914;DHT22;13718;50.922;5.346;2023-05-10T06:09:42;14.00;99.90
25914;DHT22;13718;50.922;5.346;2023-05-10T06:12:08;14.00;99.90
25914;DHT22;13718;50.922;5.346;2023-05-10T06:14:34;14.00;99.90
25914;DHT22;13718;50.922;5.346;2023-05-10T06:16:59;14.00;99.90
25914;DHT22;13718;50.922;5.346;2023-05-10T06:19:25;14.00;99.90
25914;DHT22;13718;50.922;5.346;2023-05-10T06:21:51;14.00;99.90
25914;DHT22;13718;50.922;5.346;2023-05-10T06:24:17;14.00;99.90
25914;DHT22;13718;50.922;5.346;2023-05-10T06:26:42;14.00;99.90
25914;DHT22;13718;50.922;5.346;2023-05-10T06:29:08;14.00;99.90
25914;DHT22;13718;50.922;5.346;2023-05-10T06:31:34;14.10;99.90
25914;DHT22;13718;50.922;5.346;2023-05-10T06:33:59;14.10;99.90
25914;DHT22;13718;50.922;5.346;2023-05-10T06:36:25;14.10;99.90
25914;DHT22;13718;50.922;5.346;2023-05-10T06:38:51;14.20;99.90
25914;DHT22;13718;50.922;5.346;2023-05-10T06:41:17;14.20;99.90
25914;DHT22;13718;50.922;5.346;2023-05-10T06:43:43;14.30;99.90
25914;DHT22;13718;50.922;5.346;2023-05-10T06:46:08;14.30;99.90
25914;DHT22;13718;50.922;5.346;2023-05-10T06:48:34;14.30;99.90
25914;DHT22;13718;50.922;5.346;2023-05-10T06:51:00;14.40;99.90
25914;DHT22;13718;50.922;5.346;2023-05-10T06:53:26;14.30;99.90
25914;DHT22;13718;50.922;5.346;2023-05-10T06:55:51;14.50;99.90
25914;DHT22;13718;50.922;5.346;2023-05-10T06:58:17;14.40;99.90
25914;DHT22;13718;50.922;5.346;2023-05-10T07:00:43;14.30;99.90
25914;DHT22;13718;50.922;5.346;2023-05-10T07:03:10;14.30;99.90
25914;DHT22;13718;50.922;5.346;2023-05-10T07:05:36;14.30;99.90
25914;DHT22;13718;50.922;5.346;2023-05-10T07:08:01;14.30;99.90
25914;DHT22;13718;50.922;5.346;2023-05-10T07:10:27;14.30;99.90
25914;DHT22;13718;50.922;5.346;2023-05-10T07:12:53;14.30;99.90
25914;DHT22;13718;50.922;5.346;2023-05-10T07:15:18;14.30;99.90
25914;DHT22;13718;50.922;5.346;2023-05-10T07:17:44;14.30;99.90
25914;DHT22;13718;50.922;5.346;2023-05-10T07:20:11;14.30;99.90
25914;DHT22;13718;50.922;5.346;2023-05-10T07:22:36;14.30;99.90
25914;DHT22;13718;50.922;5.346;2023-05-10T07:25:02;14.30;99.90
25914;DHT22;13718;50.922;5.346;2023-05-10T07:27:28;14.30;99.90
25914;DHT22;13718;50.922;5.346;2023-05-10T07:29:53;14.30;99.90
25914;DHT22;13718;50.922;5.346;2023-05-10T07:32:20;14.40;99.90
25914;DHT22;13718;50.922;5.346;2023-05-10T07:34:48;14.40;99.90
25914;DHT22;13718;50.922;5.346;2023-05-10T07:37:13;14.50;99.90
25914;DHT22;13718;50.922;5.346;2023-05-10T07:39:39;14.50;99.90
25914;DHT22;13718;50.922;5.346;2023-05-10T07:42:04;14.50;99.90
25914;DHT22;13718;50.922;5.346;2023-05-10T07:44:31;14.60;99.90
25914;DHT22;13718;50.922;5.346;2023-05-10T07:46:56;14.60;99.90
25914;DHT22;13718;50.922;5.346;2023-05-10T07:49:22;14.70;99.90
25914;DHT22;13718;50.922;5.346;2023-05-10T07:51:52;14.80;99.90
25914;DHT22;13718;50.922;5.346;2023-05-10T07:54:18;14.90;99.90
25914;DHT22;13718;50.922;5.346;2023-05-10T07:56:43;14.90;99.90
25914;DHT22;13718;50.922;5.346;2023-05-10T07:59:15;15.00;99.90
25914;DHT22;13718;50.922;5.346;2023-05-10T08:01:42;15.00;99.90
25914;DHT22;13718;50.922;5.346;2023-05-10T08:04:08;15.10;99.90
25914;DHT22;13718;50.922;5.346;2023-05-10T08:06:34;15.10;99.90
25914;DHT22;13718;50.922;5.346;2023-05-10T08:09:00;15.20;99.90
25914;DHT22;13718;50.922;5.346;2023-05-10T08:11:26;15.20;99.90
25914;DHT22;13718;50.922;5.346;2023-05-10T08:13:53;15.10;99.90
25914;DHT22;13718;50.922;5.346;2023-05-10T08:16:19;14.90;99.90
25914;DHT22;13718;50.922;5.346;2023-05-10T08:18:46;14.70;99.90
25914;DHT22;13718;50.922;5.346;2023-05-10T08:21:12;14.60;99.90
25914;DHT22;13718;50.922;5.346;2023-05-10T08:23:39;14.50;99.90
25914;DHT22;13718;50.922;5.346;2023-05-10T08:26:04;14.50;99.90
25914;DHT22;13718;50.922;5.346;2023-05-10T08:28:30;14.50;99.90
25914;DHT22;13718;50.922;5.346;2023-05-10T08:30:56;14.50;99.90
25914;DHT22;13718;50.922;5.346;2023-05-10T08:33:22;14.40;99.90
25914;DHT22;13718;50.922;5.346;2023-05-10T08:35:48;14.40;99.90
25914;DHT22;13718;50.922;5.346;2023-05-10T08:38:13;14.30;99.90
25914;DHT22;13718;50.922;5.346;2023-05-10T08:40:43;14.20;99.90
25914;DHT22;13718;50.922;5.346;2023-05-10T08:43:11;14.20;99.90
25914;DHT22;13718;50.922;5.346;2023-05-10T08:45:39;14.10;99.90
25914;DHT22;13718;50.922;5.346;2023-05-10T08:48:06;14.00;99.90
25914;DHT22;13718;50.922;5.346;2023-05-10T08:50:36;14.00;99.90
25914;DHT22;13718;50.922;5.346;2023-05-10T08:53:06;14.00;99.90
25914;DHT22;13718;50.922;5.346;2023-05-10T08:55:34;14.00;99.90
25914;DHT22;13718;50.922;5.346;2023-05-10T08:58:02;14.10;99.90
25914;DHT22;13718;50.922;5.346;2023-05-10T09:00:28;14.10;99.90
25914;DHT22;13718;50.922;5.346;2023-05-10T09:02:54;14.20;99.90
25914;DHT22;13718;50.922;5.346;2023-05-10T09:05:21;14.20;99.90
25914;DHT22;13718;50.922;5.346;2023-05-10T09:07:46;14.10;99.90
25914;DHT22;13718;50.922;5.346;2023-05-10T09:10:13;14.10;99.90
25914;DHT22;13718;50.922;5.346;2023-05-10T09:12:40;14.10;99.90
25914;DHT22;13718;50.922;5.346;2023-05-10T09:15:07;14.20;99.90
25914;DHT22;13718;50.922;5.346;2023-05-10T09:17:34;14.30;99.90
25914;DHT22;13718;50.922;5.346;2023-05-10T09:20:00;14.30;99.90
25914;DHT22;13718;50.922;5.346;2023-05-10T09:22:27;14.30;99.90
25914;DHT22;13718;50.922;5.346;2023-05-10T09:25:16;14.40;99.90
25914;DHT22;13718;50.922;5.346;2023-05-10T09:27:45;14.40;99.90
25914;DHT22;13718;50.922;5.346;2023-05-10T09:30:32;14.60;99.90
25914;DHT22;13718;50.922;5.346;2023-05-10T09:32:59;14.70;99.90
25914;DHT22;13718;50.922;5.346;2023-05-10T09:35:28;14.70;99.90
25914;DHT22;13718;50.922;5.346;2023-05-10T09:37:55;14.90;99.90
25914;DHT22;13718;50.922;5.346;2023-05-10T09:40:23;15.00;99.90
25914;DHT22;13718;50.922;5.346;2023-05-10T09:43:06;15.10;99.90
25914;DHT22;13718;50.922;5.346;2023-05-10T09:45:33;15.20;99.90
25914;DHT22;13718;50.922;5.346;2023-05-10T09:48:01;15.30;99.90
25914;DHT22;13718;50.922;5.346;2023-05-10T09:50:28;15.40;99.90
25914;DHT22;13718;50.922;5.346;2023-05-10T09:52:59;15.50;99.90
25914;DHT22;13718;50.922;5.346;2023-05-10T09:55:39;15.60;99.90
25914;DHT22;13718;50.922;5.346;2023-05-10T09:58:06;15.80;99.90
25914;DHT22;13718;50.922;5.346;2023-05-10T10:00:42;15.90;99.90
25914;DHT22;13718;50.922;5.346;2023-05-10T10:03:19;15.90;99.90
25914;DHT22;13718;50.922;5.346;2023-05-10T10:05:46;15.90;99.90
25914;DHT22;13718;50.922;5.346;2023-05-10T10:08:12;16.00;99.90
25914;DHT22;13718;50.922;5.346;2023-05-10T10:10:39;16.00;99.90
25914;DHT22;13718;50.922;5.346;2023-05-10T10:13:09;16.20;99.90
25914;DHT22;13718;50.922;5.346;2023-05-10T10:15:35;16.10;99.90
25914;DHT22;13718;50.922;5.346;2023-05-10T10:18:01;16.10;99.90
25914;DHT22;13718;50.922;5.346;2023-05-10T10:20:27;16.10;99.90
25914;DHT22;13718;50.922;5.346;2023-05-10T10:22:53;16.00;99.90
25914;DHT22;13718;50.922;5.346;2023-05-10T10:25:19;16.00;99.90
25914;DHT22;13718;50.922;5.346;2023-05-10T10:30:43;15.90;99.90
25914;DHT22;13718;50.922;5.346;2023-05-10T10:35:50;15.80;99.90
25914;DHT22;13718;50.922;5.346;2023-05-10T10:38:17;15.80;99.90
25914;DHT22;13718;50.922;5.346;2023-05-10T10:40:43;15.90;99.90
25914;DHT22;13718;50.922;5.346;2023-05-10T10:43:22;15.80;99.90
25914;DHT22;13718;50.922;5.346;2023-05-10T10:46:16;15.80;99.90
25914;DHT22;13718;50.922;5.346;2023-05-10T10:48:50;15.90;99.90
25914;DHT22;13718;50.922;5.346;2023-05-10T10:51:16;16.00;99.90
25914;DHT22;13718;50.922;5.346;2023-05-10T10:53:43;16.00;99.90
25914;DHT22;13718;50.922;5.346;2023-05-10T10:56:10;15.90;99.90
25914;DHT22;13718;50.922;5.346;2023-05-10T10:58:38;16.00;99.90
25914;DHT22;13718;50.922;5.346;2023-05-10T11:01:19;16.00;99.90
25914;DHT22;13718;50.922;5.346;2023-05-10T11:06:33;16.00;99.90
25914;DHT22;13718;50.922;5.346;2023-05-10T11:09:08;16.10;99.90
25914;DHT22;13718;50.922;5.346;2023-05-10T11:11:35;16.10;99.90
25914;DHT22;13718;50.922;5.346;2023-05-10T11:14:07;16.20;99.90
25914;DHT22;13718;50.922;5.346;2023-05-10T11:16:43;16.20;99.90
25914;DHT22;13718;50.922;5.346;2023-05-10T11:19:11;16.30;99.90
25914;DHT22;13718;50.922;5.346;2023-05-10T11:21:48;16.40;99.90
25914;DHT22;13718;50.922;5.346;2023-05-10T11:24:19;16.50;99.90
25914;DHT22;13718;50.922;5.346;2023-05-10T11:26:45;16.50;99.90
25914;DHT22;13718;50.922;5.346;2023-05-10T11:29:13;16.60;99.90
25914;DHT22;13718;50.922;5.346;2023-05-10T11:31:46;16.60;99.90
25914;DHT22;13718;50.922;5.346;2023-05-10T11:34:26;16.80;99.90
25914;DHT22;13718;50.922;5.346;2023-05-10T11:36:54;16.80;99.90
25914;DHT22;13718;50.922;5.346;2023-05-10T11:39:20;16.80;99.90
25914;DHT22;13718;50.922;5.346;2023-05-10T11:41:49;16.80;99.90
25914;DHT22;13718;50.922;5.346;2023-05-10T11:44:15;16.80;99.90
25914;DHT22;13718;50.922;5.346;2023-05-10T11:46:41;17.00;99.90
25914;DHT22;13718;50.922;5.346;2023-05-10T11:49:07;17.20;99.90
25914;DHT22;13718;50.922;5.346;2023-05-10T11:51:34;17.20;99.90
25914;DHT22;13718;50.922;5.346;2023-05-10T11:54:06;17.20;99.90
25914;DHT22;13718;50.922;5.346;2023-05-10T11:56:32;17.30;99.90
25914;DHT22;13718;50.922;5.346;2023-05-10T11:58:59;17.20;99.90
25914;DHT22;13718;50.922;5.346;2023-05-10T12:01:28;17.10;99.90
25914;DHT22;13718;50.922;5.346;2023-05-10T12:03:56;17.10;99.90
25914;DHT22;13718;50.922;5.346;2023-05-10T12:06:27;17.10;99.90
25914;DHT22;13718;50.922;5.346;2023-05-10T12:08:54;17.10;99.90
25914;DHT22;13718;50.922;5.346;2023-05-10T12:11:20;17.10;99.90
25914;DHT22;13718;50.922;5.346;2023-05-10T12:13:47;17.10;99.90
25914;DHT22;13718;50.922;5.346;2023-05-10T12:16:15;17.30;99.90
25914;DHT22;13718;50.922;5.346;2023-05-10T12:18:41;17.30;99.90
25914;DHT22;13718;50.922;5.346;2023-05-10T12:21:09;17.30;99.90
25914;DHT22;13718;50.922;5.346;2023-05-10T12:23:36;17.40;99.90
25914;DHT22;13718;50.922;5.346;2023-05-10T12:26:02;17.30;99.90
25914;DHT22;13718;50.922;5.346;2023-05-10T12:28:32;17.30;99.90
25914;DHT22;13718;50.922;5.346;2023-05-10T12:30:59;17.30;99.90
25914;DHT22;13718;50.922;5.346;2023-05-10T12:33:25;17.30;99.90
25914;DHT22;13718;50.922;5.346;2023-05-10T12:35:54;17.40;99.90
25914;DHT22;13718;50.922;5.346;2023-05-10T12:38:37;17.40;99.90
25914;DHT22;13718;50.922;5.346;2023-05-10T12:41:08;17.30;99.90
25914;DHT22;13718;50.922;5.346;2023-05-10T12:43:35;17.10;99.90
25914;DHT22;13718;50.922;5.346;2023-05-10T12:46:07;16.90;99.90
25914;DHT22;13718;50.922;5.346;2023-05-10T12:48:33;16.90;99.90
25914;DHT22;13718;50.922;5.346;2023-05-10T12:51:00;17.00;99.90
25914;DHT22;13718;50.922;5.346;2023-05-10T12:53:25;16.90;99.90
25914;DHT22;13718;50.922;5.346;2023-05-10T12:55:51;16.90;99.90
25914;DHT22;13718;50.922;5.346;2023-05-10T12:58:17;16.90;99.90
25914;DHT22;13718;50.922;5.346;2023-05-10T13:00:42;16.90;99.90
25914;DHT22;13718;50.922;5.346;2023-05-10T13:03:09;16.80;99.90
25914;DHT22;13718;50.922;5.346;2023-05-10T13:05:35;16.80;99.90
25914;DHT22;13718;50.922;5.346;2023-05-10T13:08:01;16.90;99.90
25914;DHT22;13718;50.922;5.346;2023-05-10T13:10:31;17.00;99.90
25914;DHT22;13718;50.922;5.346;2023-05-10T13:12:57;17.20;99.90
25914;DHT22;13718;50.922;5.346;2023-05-10T13:15:24;17.40;99.90
25914;DHT22;13718;50.922;5.346;2023-05-10T13:17:49;17.50;99.90
25914;DHT22;13718;50.922;5.346;2023-05-10T13:20:15;17.70;99.90
25914;DHT22;13718;50.922;5.346;2023-05-10T13:22:42;17.70;99.90
25914;DHT22;13718;50.922;5.346;2023-05-10T13:25:08;17.80;99.90
25914;DHT22;13718;50.922;5.346;2023-05-10T13:27:34;17.90;99.90
25914;DHT22;13718;50.922;5.346;2023-05-10T13:29:59;18.10;99.90
25914;DHT22;13718;50.922;5.346;2023-05-10T13:32:26;18.20;99.90
25914;DHT22;13718;50.922;5.346;2023-05-10T13:34:51;18.40;99.90
25914;DHT22;13718;50.922;5.346;2023-05-10T13:37:17;18.40;99.90
25914;DHT22;13718;50.922;5.346;2023-05-10T13:39:43;18.50;99.90
25914;DHT22;13718;50.922;5.346;2023-05-10T13:42:09;18.60;99.90
25914;DHT22;13718;50.922;5.346;2023-05-10T13:44:35;18.60;99.90
25914;DHT22;13718;50.922;5.346;2023-05-10T13:47:01;18.60;99.90
25914;DHT22;13718;50.922;5.346;2023-05-10T13:49:27;18.60;99.90
25914;DHT22;13718;50.922;5.346;2023-05-10T13:51:52;18.60;99.90
25914;DHT22;13718;50.922;5.346;2023-05-10T13:54:18;18.60;99.90
25914;DHT22;13718;50.922;5.346;2023-05-10T13:56:47;18.60;99.90
25914;DHT22;13718;50.922;5.346;2023-05-10T13:59:14;18.50;99.90
25914;DHT22;13718;50.922;5.346;2023-05-10T14:01:40;18.60;99.90
25914;DHT22;13718;50.922;5.346;2023-05-10T14:04:06;18.60;99.90
25914;DHT22;13718;50.922;5.346;2023-05-10T14:06:35;18.50;99.90
25914;DHT22;13718;50.922;5.346;2023-05-10T14:09:01;18.30;99.90
25914;DHT22;13718;50.922;5.346;2023-05-10T14:11:27;18.20;99.90
25914;DHT22;13718;50.922;5.346;2023-05-10T14:13:53;18.10;99.90
25914;DHT22;13718;50.922;5.346;2023-05-10T14:16:19;18.10;99.90
25914;DHT22;13718;50.922;5.346;2023-05-10T14:18:45;18.00;99.90
25914;DHT22;13718;50.922;5.346;2023-05-10T14:21:11;17.90;99.90
25914;DHT22;13718;50.922;5.346;2023-05-10T14:23:37;18.00;99.90
25914;DHT22;13718;50.922;5.346;2023-05-10T14:26:02;18.00;99.90
25914;DHT22;13718;50.922;5.346;2023-05-10T14:28:28;18.20;99.90
25914;DHT22;13718;50.922;5.346;2023-05-10T14:30:54;18.20;99.90
25914;DHT22;13718;50.922;5.346;2023-05-10T14:33:19;18.30;99.90
25914;DHT22;13718;50.922;5.346;2023-05-10T14:35:46;18.30;99.90
25914;DHT22;13718;50.922;5.346;2023-05-10T14:38:13;18.40;99.90
25914;DHT22;13718;50.922;5.346;2023-05-10T14:40:39;18.30;99.90
25914;DHT22;13718;50.922;5.346;2023-05-10T14:43:04;18.30;99.90
25914;DHT22;13718;50.922;5.346;2023-05-10T14:45:30;18.40;99.90
25914;DHT22;13718;50.922;5.346;2023-05-10T14:47:57;18.60;99.90
25914;DHT22;13718;50.922;5.346;2023-05-10T14:50:22;18.80;99.90
25914;DHT22;13718;50.922;5.346;2023-05-10T14:52:48;19.00;99.90
25914;DHT22;13718;50.922;5.346;2023-05-10T14:55:14;19.10;99.90
25914;DHT22;13718;50.922;5.346;2023-05-10T14:57:40;19.20;99.90
25914;DHT22;13718;50.922;5.346;2023-05-10T15:00:06;19.40;99.90
25914;DHT22;13718;50.922;5.346;2023-05-10T15:02:32;19.50;99.90
25914;DHT22;13718;50.922;5.346;2023-05-10T15:04:58;19.60;99.90
25914;DHT22;13718;50.922;5.346;2023-05-10T15:07:24;19.70;99.90
25914;DHT22;13718;50.922;5.346;2023-05-10T15:09:52;19.80;99.90
25914;DHT22;13718;50.922;5.346;2023-05-10T15:12:18;19.90;99.90
25914;DHT22;13718;50.922;5.346;2023-05-10T15:14:44;20.00;99.90
25914;DHT22;13718;50.922;5.346;2023-05-10T15:17:10;20.00;99.90
25914;DHT22;13718;50.922;5.346;2023-05-10T15:19:35;20.00;99.90
25914;DHT22;13718;50.922;5.346;2023-05-10T15:22:02;20.00;99.90
25914;DHT22;13718;50.922;5.346;2023-05-10T15:24:28;20.10;99.90
25914;DHT22;13718;50.922;5.346;2023-05-10T15:26:54;20.10;99.90
25914;DHT22;13718;50.922;5.346;2023-05-10T15:29:19;20.00;99.90
25914;DHT22;13718;50.922;5.346;2023-05-10T15:31:47;20.10;99.90
25914;DHT22;13718;50.922;5.346;2023-05-10T15:34:14;20.20;99.90
25914;DHT22;13718;50.922;5.346;2023-05-10T15:36:39;20.20;99.90
25914;DHT22;13718;50.922;5.346;2023-05-10T15:39:05;20.30;99.90
25914;DHT22;13718;50.922;5.346;2023-05-10T15:41:31;20.30;99.90
25914;DHT22;13718;50.922;5.346;2023-05-10T15:43:57;20.20;99.90
25914;DHT22;13718;50.922;5.346;2023-05-10T15:46:25;20.20;99.90
25914;DHT22;13718;50.922;5.346;2023-05-10T15:48:51;20.10;99.90
25914;DHT22;13718;50.922;5.346;2023-05-10T15:51:17;20.10;99.90
25914;DHT22;13718;50.922;5.346;2023-05-10T15:53:44;20.10;99.90
25914;DHT22;13718;50.922;5.346;2023-05-10T15:56:09;20.20;99.90
25914;DHT22;13718;50.922;5.346;2023-05-10T15:58:37;20.20;99.90